X  Chiuso Dati meteorologici dell'aviazione (METAR)     LIPX Verona-Villafranca Valerio Catullo Airport
Temperatura
8°C Temperatura
5°C Punto di rugiada
82% Umidità



Vento
27 KM/O
17 MPH
8 M/S
15 KTS



320°
NO
Condizioni attuali

Pioggia Pioggia
Pressione 990.92 (hPa) - 29.26 (inHg)
Visibilità 5 (miglio) - 8 (km)
Aeroporto
Codice-Aeroporto LIPX

Posizione: Verona-Villafranca Valerio Catullo Airport
Distanza: 0 (km)

Metar:
LIPX 221420Z 32015KT 8000 RA FEW025 BKN040 08/05 Q0991

Ore: 22-11-2022 15:20 CET